Terminal Aerodrome Forecast
Issued by NWS La Crosse, WI

Home | Current Version | Previous Version | Text Only | Print | Product List | Glossary On
Versions: 1 2 3 4 5 6 7 8 9 10 11 12 13 14 15 16 17 18 19 20
000
FTUS43 KARX 032330
TAFLSE
TAF
KLSE 032330Z 0400/0424 VRB03KT P6SM OVC080
     FM040500 15004KT P6SM -SN OVC025
     FM040900 15005KT 2SM -SN OVC008
     FM041400 15008KT 1SM -SN OVC008
     FM041900 18008KT P6SM OVC008=

USA.gov is the U.S. government's official web portal to all federal, state and local government web resources and services.